sensor_id;sensor_type;location;lat;lon;timestamp;pressure;altitude;pressure_sealevel;temperature;humidity
21185;BME280;18176;49.502;11.754;2023-04-01T00:00:35;95493.13;;;12.72;68.45
21185;BME280;18176;49.502;11.754;2023-04-01T00:04:35;95496.34;;;12.69;68.18
21185;BME280;18176;49.502;11.754;2023-04-01T00:08:39;95499.94;;;12.83;67.65
21185;BME280;18176;49.502;11.754;2023-04-01T00:12:40;95490.97;;;12.79;67.96
21185;BME280;18176;49.502;11.754;2023-04-01T00:16:41;95457.06;;;12.66;67.65
21185;BME280;18176;49.502;11.754;2023-04-01T00:20:44;95487.34;;;12.65;67.96
21185;BME280;18176;49.502;11.754;2023-04-01T00:24:48;95480.34;;;13.08;66.46
21185;BME280;18176;49.502;11.754;2023-04-01T00:28:49;95484.91;;;13.07;66.51
21185;BME280;18176;49.502;11.754;2023-04-01T00:32:52;95481.78;;;12.95;66.86
21185;BME280;18176;49.502;11.754;2023-04-01T00:36:53;95486.78;;;12.68;68.07
21185;BME280;18176;49.502;11.754;2023-04-01T00:40:58;95483.06;;;12.69;67.80
21185;BME280;18176;49.502;11.754;2023-04-01T00:44:58;95483.09;;;12.64;68.14
21185;BME280;18176;49.502;11.754;2023-04-01T00:49:23;95467.22;;;12.88;67.43
21185;BME280;18176;49.502;11.754;2023-04-01T00:53:26;95473.91;;;12.80;67.66
21185;BME280;18176;49.502;11.754;2023-04-01T00:57:36;95473.06;;;12.56;67.36
21185;BME280;18176;49.502;11.754;2023-04-01T01:01:38;95471.50;;;12.84;66.85
21185;BME280;18176;49.502;11.754;2023-04-01T01:10:24;95467.44;;;12.62;67.54
21185;BME280;18176;49.502;11.754;2023-04-01T01:14:43;95464.56;;;12.88;65.64
21185;BME280;18176;49.502;11.754;2023-04-01T01:18:53;95466.22;;;12.50;67.33
21185;BME280;18176;49.502;11.754;2023-04-01T01:28:07;95446.56;;;12.46;66.80
21185;BME280;18176;49.502;11.754;2023-04-01T01:32:29;95459.03;;;12.84;66.03
21185;BME280;18176;49.502;11.754;2023-04-01T01:36:38;95441.44;;;12.88;66.16
21185;BME280;18176;49.502;11.754;2023-04-01T01:40:45;95447.25;;;12.90;65.76
21185;BME280;18176;49.502;11.754;2023-04-01T01:44:52;95448.00;;;12.67;66.64
21185;BME280;18176;49.502;11.754;2023-04-01T01:48:55;95449.28;;;12.41;67.44
21185;BME280;18176;49.502;11.754;2023-04-01T01:53:11;95453.66;;;12.22;68.71
21185;BME280;18176;49.502;11.754;2023-04-01T01:57:12;95454.19;;;12.19;68.58
21185;BME280;18176;49.502;11.754;2023-04-01T02:01:21;95451.47;;;12.29;68.05
21185;BME280;18176;49.502;11.754;2023-04-01T02:05:29;95464.09;;;12.47;67.08
21185;BME280;18176;49.502;11.754;2023-04-01T02:09:40;95451.25;;;12.59;67.58
21185;BME280;18176;49.502;11.754;2023-04-01T02:13:49;95451.19;;;12.30;68.56
21185;BME280;18176;49.502;11.754;2023-04-01T02:17:52;95455.19;;;12.28;68.50
21185;BME280;18176;49.502;11.754;2023-04-01T02:21:59;95453.63;;;12.27;68.23
21185;BME280;18176;49.502;11.754;2023-04-01T02:26:07;95469.88;;;12.59;67.49
21185;BME280;18176;49.502;11.754;2023-04-01T02:30:13;95473.88;;;12.18;70.03
21185;BME280;18176;49.502;11.754;2023-04-01T02:34:15;95474.44;;;12.48;70.27
21185;BME280;18176;49.502;11.754;2023-04-01T02:38:16;95469.78;;;12.30;70.18
21185;BME280;18176;49.502;11.754;2023-04-01T02:42:19;95474.41;;;12.15;71.12
21185;BME280;18176;49.502;11.754;2023-04-01T02:46:20;95473.38;;;12.49;69.74
21185;BME280;18176;49.502;11.754;2023-04-01T02:50:20;95475.34;;;12.34;69.62
21185;BME280;18176;49.502;11.754;2023-04-01T02:54:21;95479.13;;;12.23;69.36
21185;BME280;18176;49.502;11.754;2023-04-01T02:58:24;95481.41;;;12.39;69.40
21185;BME280;18176;49.502;11.754;2023-04-01T03:02:25;95483.09;;;12.25;69.11
21185;BME280;18176;49.502;11.754;2023-04-01T03:06:26;95489.19;;;12.26;68.41
21185;BME280;18176;49.502;11.754;2023-04-01T03:10:27;95477.97;;;12.39;68.23
21185;BME280;18176;49.502;11.754;2023-04-01T03:14:30;95477.34;;;12.52;67.34
21185;BME280;18176;49.502;11.754;2023-04-01T03:18:30;95487.81;;;12.38;67.06
21185;BME280;18176;49.502;11.754;2023-04-01T03:22:31;95477.34;;;12.52;65.93
21185;BME280;18176;49.502;11.754;2023-04-01T03:26:31;95486.22;;;12.71;65.46
21185;BME280;18176;49.502;11.754;2023-04-01T03:30:35;95492.81;;;12.45;65.49
21185;BME280;18176;49.502;11.754;2023-04-01T03:34:35;95495.75;;;12.77;64.63
21185;BME280;18176;49.502;11.754;2023-04-01T03:38:36;95489.88;;;12.80;64.57
21185;BME280;18176;49.502;11.754;2023-04-01T03:42:37;95498.59;;;12.52;64.79
21185;BME280;18176;49.502;11.754;2023-04-01T03:46:41;95501.38;;;13.04;63.59
21185;BME280;18176;49.502;11.754;2023-04-01T03:50:41;95489.00;;;12.56;64.65
21185;BME280;18176;49.502;11.754;2023-04-01T03:54:42;95512.16;;;12.89;63.67
21185;BME280;18176;49.502;11.754;2023-04-01T03:58:43;95503.88;;;12.91;63.38
21185;BME280;18176;49.502;11.754;2023-04-01T04:02:46;95501.50;;;12.89;63.75
21185;BME280;18176;49.502;11.754;2023-04-01T04:06:54;95499.88;;;12.93;63.55
21185;BME280;18176;49.502;11.754;2023-04-01T04:10:56;95503.13;;;12.85;64.30
21185;BME280;18176;49.502;11.754;2023-04-01T04:14:57;95510.50;;;12.93;63.60
21185;BME280;18176;49.502;11.754;2023-04-01T04:19:00;95502.66;;;12.78;63.56
21185;BME280;18176;49.502;11.754;2023-04-01T04:23:01;95497.22;;;12.93;63.26
21185;BME280;18176;49.502;11.754;2023-04-01T04:27:01;95507.81;;;12.98;62.37
21185;BME280;18176;49.502;11.754;2023-04-01T04:31:05;95509.88;;;13.06;62.38
21185;BME280;18176;49.502;11.754;2023-04-01T04:35:09;95510.00;;;13.25;61.77
21185;BME280;18176;49.502;11.754;2023-04-01T04:39:10;95513.50;;;13.20;61.30
21185;BME280;18176;49.502;11.754;2023-04-01T04:43:15;95507.91;;;13.17;62.00
21185;BME280;18176;49.502;11.754;2023-04-01T04:47:15;95496.41;;;13.26;61.12
21185;BME280;18176;49.502;11.754;2023-04-01T04:51:20;95523.31;;;12.86;62.08
21185;BME280;18176;49.502;11.754;2023-04-01T04:55:21;95521.03;;;13.03;61.82
21185;BME280;18176;49.502;11.754;2023-04-01T04:59:42;95512.53;;;13.06;62.03
21185;BME280;18176;49.502;11.754;2023-04-01T05:03:49;95523.28;;;12.91;62.23
21185;BME280;18176;49.502;11.754;2023-04-01T05:07:52;95523.25;;;12.14;64.55
21185;BME280;18176;49.502;11.754;2023-04-01T05:11:54;95518.34;;;12.41;63.40
21185;BME280;18176;49.502;11.754;2023-04-01T05:15:57;95519.06;;;12.85;62.77
21185;BME280;18176;49.502;11.754;2023-04-01T05:19:57;95510.91;;;12.77;63.99
21185;BME280;18176;49.502;11.754;2023-04-01T05:24:02;95529.97;;;12.89;63.55
21185;BME280;18176;49.502;11.754;2023-04-01T05:28:02;95531.56;;;12.46;64.96
21185;BME280;18176;49.502;11.754;2023-04-01T05:32:03;95521.91;;;12.60;64.58
21185;BME280;18176;49.502;11.754;2023-04-01T05:36:10;95515.63;;;12.46;65.81
21185;BME280;18176;49.502;11.754;2023-04-01T05:40:14;95527.84;;;12.52;65.77
21185;BME280;18176;49.502;11.754;2023-04-01T05:44:15;95528.56;;;12.57;65.49
21185;BME280;18176;49.502;11.754;2023-04-01T05:48:37;95534.88;;;12.28;66.10
21185;BME280;18176;49.502;11.754;2023-04-01T05:52:38;95529.81;;;12.75;65.21
21185;BME280;18176;49.502;11.754;2023-04-01T05:56:42;95542.28;;;12.36;65.41
21185;BME280;18176;49.502;11.754;2023-04-01T06:00:45;95550.56;;;12.68;65.46
21185;BME280;18176;49.502;11.754;2023-04-01T06:05:13;95552.94;;;12.26;66.67
21185;BME280;18176;49.502;11.754;2023-04-01T06:09:18;95540.00;;;12.58;65.57
21185;BME280;18176;49.502;11.754;2023-04-01T06:18:41;95551.28;;;12.79;65.49
21185;BME280;18176;49.502;11.754;2023-04-01T06:23:11;95546.75;;;12.84;65.08
21185;BME280;18176;49.502;11.754;2023-04-01T06:27:36;95550.09;;;12.61;64.72
21185;BME280;18176;49.502;11.754;2023-04-01T06:32:40;95560.44;;;12.96;62.42
21185;BME280;18176;49.502;11.754;2023-04-01T06:37:21;95547.88;;;13.12;62.18
21185;BME280;18176;49.502;11.754;2023-04-01T06:41:52;95551.03;;;13.43;60.85
21185;BME280;18176;49.502;11.754;2023-04-01T06:46:10;95565.00;;;13.29;60.99
21185;BME280;18176;49.502;11.754;2023-04-01T06:50:52;95561.22;;;13.35;62.60
21185;BME280;18176;49.502;11.754;2023-04-01T06:55:34;95564.97;;;13.34;60.98
21185;BME280;18176;49.502;11.754;2023-04-01T07:00:16;95558.63;;;13.30;62.53
21185;BME280;18176;49.502;11.754;2023-04-01T07:04:25;95567.59;;;13.40;62.33
21185;BME280;18176;49.502;11.754;2023-04-01T07:08:36;95565.50;;;13.31;63.06
21185;BME280;18176;49.502;11.754;2023-04-01T07:12:45;95562.16;;;13.50;62.29
21185;BME280;18176;49.502;11.754;2023-04-01T07:17:03;95552.28;;;13.79;61.63
21185;BME280;18176;49.502;11.754;2023-04-01T07:21:22;95548.56;;;13.75;60.89
21185;BME280;18176;49.502;11.754;2023-04-01T07:25:34;95560.75;;;14.04;57.92
21185;BME280;18176;49.502;11.754;2023-04-01T07:30:15;95543.00;;;13.48;57.89
21185;BME280;18176;49.502;11.754;2023-04-01T07:34:23;95554.69;;;13.52;57.77
21185;BME280;18176;49.502;11.754;2023-04-01T07:38:38;95553.91;;;13.75;57.68
21185;BME280;18176;49.502;11.754;2023-04-01T07:48:02;95557.31;;;14.04;55.33
21185;BME280;18176;49.502;11.754;2023-04-01T07:52:16;95561.16;;;14.40;55.41
21185;BME280;18176;49.502;11.754;2023-04-01T07:56:34;95553.31;;;14.25;54.75
21185;BME280;18176;49.502;11.754;2023-04-01T08:00:51;95552.66;;;14.38;54.48
21185;BME280;18176;49.502;11.754;2023-04-01T08:05:16;95554.75;;;15.11;53.71
21185;BME280;18176;49.502;11.754;2023-04-01T08:09:28;95558.38;;;15.33;53.30
21185;BME280;18176;49.502;11.754;2023-04-01T08:14:05;95548.59;;;14.97;54.28
21185;BME280;18176;49.502;11.754;2023-04-01T08:18:43;95545.03;;;14.50;55.52
21185;BME280;18176;49.502;11.754;2023-04-01T08:22:51;95558.72;;;15.13;53.74
21185;BME280;18176;49.502;11.754;2023-04-01T08:27:06;95555.91;;;14.54;54.43
21185;BME280;18176;49.502;11.754;2023-04-01T08:31:17;95546.63;;;14.28;55.42
21185;BME280;18176;49.502;11.754;2023-04-01T08:35:29;95546.03;;;14.92;54.52
21185;BME280;18176;49.502;11.754;2023-04-01T08:39:42;95563.91;;;14.72;55.41
21185;BME280;18176;49.502;11.754;2023-04-01T08:44:31;95545.31;;;14.67;54.60
21185;BME280;18176;49.502;11.754;2023-04-01T08:49:04;95537.28;;;15.05;54.45
21185;BME280;18176;49.502;11.754;2023-04-01T08:53:25;95541.13;;;14.99;53.94
21185;BME280;18176;49.502;11.754;2023-04-01T08:57:49;95547.25;;;15.13;52.88
21185;BME280;18176;49.502;11.754;2023-04-01T09:07:28;95535.06;;;15.25;52.57
21185;BME280;18176;49.502;11.754;2023-04-01T09:11:59;95537.66;;;15.90;51.71
21185;BME280;18176;49.502;11.754;2023-04-01T09:16:38;95551.59;;;15.73;51.60
21185;BME280;18176;49.502;11.754;2023-04-01T09:21:17;95544.16;;;15.38;51.99
21185;BME280;18176;49.502;11.754;2023-04-01T09:25:46;95542.09;;;15.67;52.54
21185;BME280;18176;49.502;11.754;2023-04-01T09:30:34;95553.59;;;15.81;52.03
21185;BME280;18176;49.502;11.754;2023-04-01T09:34:53;95542.91;;;16.08;51.05
21185;BME280;18176;49.502;11.754;2023-04-01T09:39:19;95563.63;;;15.57;51.81
21185;BME280;18176;49.502;11.754;2023-04-01T09:43:39;95551.41;;;15.83;52.89
21185;BME280;18176;49.502;11.754;2023-04-01T09:48:15;95543.06;;;15.58;53.11
21185;BME280;18176;49.502;11.754;2023-04-01T09:52:31;95547.13;;;15.96;53.94
21185;BME280;18176;49.502;11.754;2023-04-01T09:57:29;95561.19;;;15.42;54.77
21185;BME280;18176;49.502;11.754;2023-04-01T10:02:18;95551.19;;;15.93;53.86
21185;BME280;18176;49.502;11.754;2023-04-01T10:07:15;95551.97;;;16.35;52.52
21185;BME280;18176;49.502;11.754;2023-04-01T10:12:08;95570.00;;;15.88;52.75
21185;BME280;18176;49.502;11.754;2023-04-01T10:16:45;95550.97;;;15.49;56.15
21185;BME280;18176;49.502;11.754;2023-04-01T10:21:16;95555.59;;;15.25;57.82
21185;BME280;18176;49.502;11.754;2023-04-01T10:26:18;95541.09;;;15.63;56.07
21185;BME280;18176;49.502;11.754;2023-04-01T10:41:32;95551.25;;;15.61;56.45
21185;BME280;18176;49.502;11.754;2023-04-01T10:51:16;95540.59;;;15.29;56.22
21185;BME280;18176;49.502;11.754;2023-04-01T11:00:57;95552.59;;;15.13;57.87
21185;BME280;18176;49.502;11.754;2023-04-01T11:06:13;95562.94;;;14.45;59.09
21185;BME280;18176;49.502;11.754;2023-04-01T11:20:35;95574.19;;;14.79;59.10
21185;BME280;18176;49.502;11.754;2023-04-01T11:30:20;95558.19;;;15.30;58.21
21185;BME280;18176;49.502;11.754;2023-04-01T11:35:06;95553.53;;;15.54;57.33
21185;BME280;18176;49.502;11.754;2023-04-01T11:39:25;95549.03;;;16.23;55.11
21185;BME280;18176;49.502;11.754;2023-04-01T11:44:14;95545.66;;;15.76;56.63
21185;BME280;18176;49.502;11.754;2023-04-01T11:49:00;95570.97;;;15.33;57.88
21185;BME280;18176;49.502;11.754;2023-04-01T11:53:38;95539.16;;;14.48;59.58
21185;BME280;18176;49.502;11.754;2023-04-01T12:02:35;95569.38;;;15.32;60.99
21185;BME280;18176;49.502;11.754;2023-04-01T12:06:56;95560.56;;;14.99;60.31
21185;BME280;18176;49.502;11.754;2023-04-01T12:11:16;95565.75;;;14.53;62.69
21185;BME280;18176;49.502;11.754;2023-04-01T12:15:29;95566.47;;;13.93;64.43
21185;BME280;18176;49.502;11.754;2023-04-01T12:19:44;95572.03;;;13.96;65.13
21185;BME280;18176;49.502;11.754;2023-04-01T12:28:47;95568.72;;;14.70;64.33
21185;BME280;18176;49.502;11.754;2023-04-01T12:33:04;95574.25;;;15.43;62.33
21185;BME280;18176;49.502;11.754;2023-04-01T12:37:18;95573.63;;;14.63;64.15
21185;BME280;18176;49.502;11.754;2023-04-01T12:41:31;95574.47;;;13.93;64.53
21185;BME280;18176;49.502;11.754;2023-04-01T12:45:43;95578.31;;;14.29;66.82
21185;BME280;18176;49.502;11.754;2023-04-01T12:50:09;95585.25;;;14.06;66.38
21185;BME280;18176;49.502;11.754;2023-04-01T12:54:44;95596.75;;;14.02;67.27
21185;BME280;18176;49.502;11.754;2023-04-01T12:59:29;95579.38;;;13.86;66.89
21185;BME280;18176;49.502;11.754;2023-04-01T13:03:55;95587.94;;;13.20;69.07
21185;BME280;18176;49.502;11.754;2023-04-01T13:08:24;95575.94;;;13.80;67.67
21185;BME280;18176;49.502;11.754;2023-04-01T13:12:53;95586.53;;;14.09;64.80
21185;BME280;18176;49.502;11.754;2023-04-01T13:17:07;95582.25;;;13.89;67.28
21185;BME280;18176;49.502;11.754;2023-04-01T13:21:23;95578.63;;;14.46;66.65
21185;BME280;18176;49.502;11.754;2023-04-01T13:25:36;95580.19;;;14.52;65.81
21185;BME280;18176;49.502;11.754;2023-04-01T13:29:44;95589.03;;;14.24;67.16
21185;BME280;18176;49.502;11.754;2023-04-01T13:33:56;95580.53;;;13.75;66.63
21185;BME280;18176;49.502;11.754;2023-04-01T13:38:56;95602.13;;;13.97;68.87
21185;BME280;18176;49.502;11.754;2023-04-01T13:43:12;95590.75;;;14.15;67.62
21185;BME280;18176;49.502;11.754;2023-04-01T13:47:55;95588.56;;;14.17;67.90
21185;BME280;18176;49.502;11.754;2023-04-01T13:52:31;95595.72;;;13.98;68.13
21185;BME280;18176;49.502;11.754;2023-04-01T13:56:50;95592.78;;;13.76;68.39
21185;BME280;18176;49.502;11.754;2023-04-01T14:01:08;95585.06;;;13.74;68.68
21185;BME280;18176;49.502;11.754;2023-04-01T14:05:36;95595.44;;;13.47;69.39
21185;BME280;18176;49.502;11.754;2023-04-01T14:09:58;95596.44;;;13.22;70.70
21185;BME280;18176;49.502;11.754;2023-04-01T14:14:18;95598.72;;;13.39;70.05
21185;BME280;18176;49.502;11.754;2023-04-01T14:18:39;95609.09;;;13.35;69.09
21185;BME280;18176;49.502;11.754;2023-04-01T14:22:59;95604.38;;;13.56;66.72
21185;BME280;18176;49.502;11.754;2023-04-01T14:27:38;95604.47;;;13.75;68.92
21185;BME280;18176;49.502;11.754;2023-04-01T14:31:54;95594.34;;;14.00;66.64
21185;BME280;18176;49.502;11.754;2023-04-01T14:36:37;95605.25;;;14.04;67.93
21185;BME280;18176;49.502;11.754;2023-04-01T14:41:00;95601.94;;;14.12;67.96
21185;BME280;18176;49.502;11.754;2023-04-01T14:45:34;95606.16;;;14.18;67.03
21185;BME280;18176;49.502;11.754;2023-04-01T14:49:46;95599.63;;;13.82;68.83
21185;BME280;18176;49.502;11.754;2023-04-01T14:54:04;95602.53;;;14.33;66.05
21185;BME280;18176;49.502;11.754;2023-04-01T14:58:10;95606.97;;;13.95;67.76
21185;BME280;18176;49.502;11.754;2023-04-01T15:02:33;95610.91;;;14.21;66.80
21185;BME280;18176;49.502;11.754;2023-04-01T15:07:05;95602.97;;;14.16;66.72
21185;BME280;18176;49.502;11.754;2023-04-01T15:11:32;95608.41;;;14.06;67.64
21185;BME280;18176;49.502;11.754;2023-04-01T15:15:55;95609.16;;;14.35;67.39
21185;BME280;18176;49.502;11.754;2023-04-01T15:20:21;95613.63;;;13.92;67.43
21185;BME280;18176;49.502;11.754;2023-04-01T15:24:40;95621.09;;;14.14;67.81
21185;BME280;18176;49.502;11.754;2023-04-01T15:29:04;95596.50;;;13.75;68.50
21185;BME280;18176;49.502;11.754;2023-04-01T15:37:51;95630.91;;;13.95;69.23
21185;BME280;18176;49.502;11.754;2023-04-01T15:42:23;95634.25;;;14.29;67.89
21185;BME280;18176;49.502;11.754;2023-04-01T15:46:43;95645.75;;;14.01;68.73
21185;BME280;18176;49.502;11.754;2023-04-01T15:50:58;95647.56;;;13.77;68.72
21185;BME280;18176;49.502;11.754;2023-04-01T15:55:20;95642.44;;;13.57;70.41
21185;BME280;18176;49.502;11.754;2023-04-01T15:59:56;95647.78;;;13.57;69.60
21185;BME280;18176;49.502;11.754;2023-04-01T16:04:46;95650.66;;;13.89;70.71
21185;BME280;18176;49.502;11.754;2023-04-01T16:09:20;95651.63;;;13.98;69.87
21185;BME280;18176;49.502;11.754;2023-04-01T16:13:48;95653.44;;;13.79;69.77
21185;BME280;18176;49.502;11.754;2023-04-01T16:18:23;95648.78;;;13.61;69.72
21185;BME280;18176;49.502;11.754;2023-04-01T16:22:33;95661.06;;;13.90;69.89
21185;BME280;18176;49.502;11.754;2023-04-01T16:26:40;95655.78;;;13.85;69.41
21185;BME280;18176;49.502;11.754;2023-04-01T16:30:48;95662.44;;;13.83;69.44
21185;BME280;18176;49.502;11.754;2023-04-01T16:35:20;95658.88;;;13.64;69.72
21185;BME280;18176;49.502;11.754;2023-04-01T16:39:34;95670.03;;;13.66;70.43
21185;BME280;18176;49.502;11.754;2023-04-01T16:43:42;95670.25;;;13.41;70.82
21185;BME280;18176;49.502;11.754;2023-04-01T16:47:50;95677.19;;;13.42;70.89
21185;BME280;18176;49.502;11.754;2023-04-01T16:52:13;95679.53;;;13.09;72.45
21185;BME280;18176;49.502;11.754;2023-04-01T16:56:21;95687.97;;;13.21;73.44
21185;BME280;18176;49.502;11.754;2023-04-01T17:00:27;95688.03;;;13.45;72.11
21185;BME280;18176;49.502;11.754;2023-04-01T17:04:36;95687.38;;;13.24;72.08
21185;BME280;18176;49.502;11.754;2023-04-01T17:08:58;95688.13;;;13.35;71.62
21185;BME280;18176;49.502;11.754;2023-04-01T17:13:40;95694.91;;;13.12;72.47
21185;BME280;18176;49.502;11.754;2023-04-01T17:17:51;95711.22;;;12.96;73.25
21185;BME280;18176;49.502;11.754;2023-04-01T17:22:13;95711.25;;;13.40;72.25
21185;BME280;18176;49.502;11.754;2023-04-01T17:26:32;95713.06;;;13.05;73.08
21185;BME280;18176;49.502;11.754;2023-04-01T17:30:39;95687.22;;;13.01;72.72
21185;BME280;18176;49.502;11.754;2023-04-01T17:35:00;95724.25;;;12.87;72.69
21185;BME280;18176;49.502;11.754;2023-04-01T17:39:22;95722.53;;;13.21;72.51
21185;BME280;18176;49.502;11.754;2023-04-01T17:43:43;95739.66;;;13.05;72.47
21185;BME280;18176;49.502;11.754;2023-04-01T17:48:00;95739.19;;;12.83;73.42
21185;BME280;18176;49.502;11.754;2023-04-01T17:52:14;95726.81;;;13.12;72.84
21185;BME280;18176;49.502;11.754;2023-04-01T17:56:34;95745.50;;;13.07;72.37
21185;BME280;18176;49.502;11.754;2023-04-01T18:05:51;95749.69;;;13.13;72.90
21185;BME280;18176;49.502;11.754;2023-04-01T18:10:06;95744.72;;;13.46;71.26
21185;BME280;18176;49.502;11.754;2023-04-01T18:19:15;95753.38;;;13.17;71.38
21185;BME280;18176;49.502;11.754;2023-04-01T18:23:28;95767.19;;;13.24;70.99
21185;BME280;18176;49.502;11.754;2023-04-01T18:27:38;95748.53;;;13.34;70.66
21185;BME280;18176;49.502;11.754;2023-04-01T18:31:45;95757.13;;;13.21;70.68
21185;BME280;18176;49.502;11.754;2023-04-01T18:35:58;95778.88;;;13.28;70.89
21185;BME280;18176;49.502;11.754;2023-04-01T18:40:17;95779.03;;;13.47;70.25
21185;BME280;18176;49.502;11.754;2023-04-01T18:44:41;95786.03;;;13.33;70.37
21185;BME280;18176;49.502;11.754;2023-04-01T18:48:54;95795.28;;;13.46;70.61
21185;BME280;18176;49.502;11.754;2023-04-01T18:53:15;95792.78;;;13.10;70.93
21185;BME280;18176;49.502;11.754;2023-04-01T18:57:20;95801.44;;;13.36;70.60
21185;BME280;18176;49.502;11.754;2023-04-01T19:01:27;95817.81;;;13.09;71.52
21185;BME280;18176;49.502;11.754;2023-04-01T19:05:36;95813.06;;;12.86;71.25
21185;BME280;18176;49.502;11.754;2023-04-01T19:09:48;95808.56;;;12.87;72.14
21185;BME280;18176;49.502;11.754;2023-04-01T19:14:02;95818.38;;;12.86;72.57
21185;BME280;18176;49.502;11.754;2023-04-01T19:18:27;95827.97;;;12.77;72.78
21185;BME280;18176;49.502;11.754;2023-04-01T19:22:55;95827.41;;;12.85;72.49
21185;BME280;18176;49.502;11.754;2023-04-01T19:27:17;95838.31;;;12.89;72.29
21185;BME280;18176;49.502;11.754;2023-04-01T19:31:38;95836.50;;;12.74;72.88
21185;BME280;18176;49.502;11.754;2023-04-01T19:35:48;95831.66;;;12.91;72.56
21185;BME280;18176;49.502;11.754;2023-04-01T19:40:08;95846.03;;;12.85;72.87
21185;BME280;18176;49.502;11.754;2023-04-01T19:44:36;95834.09;;;12.73;72.75
21185;BME280;18176;49.502;11.754;2023-04-01T19:48:55;95836.25;;;12.71;72.91
21185;BME280;18176;49.502;11.754;2023-04-01T19:53:17;95849.75;;;12.89;72.32
21185;BME280;18176;49.502;11.754;2023-04-01T19:57:30;95855.13;;;12.59;73.52
21185;BME280;18176;49.502;11.754;2023-04-01T20:01:45;95847.91;;;12.75;72.43
21185;BME280;18176;49.502;11.754;2023-04-01T20:06:02;95860.41;;;12.64;72.38
21185;BME280;18176;49.502;11.754;2023-04-01T20:10:13;95833.06;;;12.58;72.45
21185;BME280;18176;49.502;11.754;2023-04-01T20:14:28;95868.59;;;13.03;71.94
21185;BME280;18176;49.502;11.754;2023-04-01T20:18:56;95873.41;;;12.91;72.13
21185;BME280;18176;49.502;11.754;2023-04-01T20:23:33;95836.72;;;12.93;71.38
21185;BME280;18176;49.502;11.754;2023-04-01T20:27:44;95874.41;;;13.15;71.20
21185;BME280;18176;49.502;11.754;2023-04-01T20:32:01;95876.84;;;13.06;70.93
21185;BME280;18176;49.502;11.754;2023-04-01T20:36:16;95875.09;;;13.46;69.96
21185;BME280;18176;49.502;11.754;2023-04-01T20:40:32;95870.91;;;13.29;70.43
21185;BME280;18176;49.502;11.754;2023-04-01T20:44:40;95882.59;;;13.28;70.53
21185;BME280;18176;49.502;11.754;2023-04-01T20:49:20;95886.94;;;13.14;70.66
21185;BME280;18176;49.502;11.754;2023-04-01T20:53:34;95891.22;;;13.05;71.27
21185;BME280;18176;49.502;11.754;2023-04-01T20:57:43;95893.31;;;13.13;71.33
21185;BME280;18176;49.502;11.754;2023-04-01T21:02:02;95891.69;;;13.12;71.05
21185;BME280;18176;49.502;11.754;2023-04-01T21:06:35;95894.88;;;13.24;70.24
21185;BME280;18176;49.502;11.754;2023-04-01T21:10:54;95890.59;;;13.28;70.31
21185;BME280;18176;49.502;11.754;2023-04-01T21:19:49;95902.38;;;12.92;71.09
21185;BME280;18176;49.502;11.754;2023-04-01T21:24:33;95906.34;;;13.05;70.89
21185;BME280;18176;49.502;11.754;2023-04-01T21:28:55;95911.13;;;13.18;70.86
21185;BME280;18176;49.502;11.754;2023-04-01T21:33:33;95913.78;;;13.13;71.00
21185;BME280;18176;49.502;11.754;2023-04-01T21:37:55;95896.00;;;12.88;71.33
21185;BME280;18176;49.502;11.754;2023-04-01T21:42:16;95916.72;;;12.96;71.66
21185;BME280;18176;49.502;11.754;2023-04-01T21:47:08;95927.38;;;12.91;72.01
21185;BME280;18176;49.502;11.754;2023-04-01T22:01:50;95938.56;;;12.68;72.69
21185;BME280;18176;49.502;11.754;2023-04-01T22:06:14;95936.44;;;12.70;72.36
21185;BME280;18176;49.502;11.754;2023-04-01T22:10:27;95943.31;;;12.91;72.48
21185;BME280;18176;49.502;11.754;2023-04-01T22:14:37;95918.63;;;12.65;72.06
21185;BME280;18176;49.502;11.754;2023-04-01T22:18:48;95939.56;;;13.12;71.42
21185;BME280;18176;49.502;11.754;2023-04-01T22:23:10;95947.31;;;12.84;72.39
21185;BME280;18176;49.502;11.754;2023-04-01T22:27:21;95950.25;;;12.82;72.59
21185;BME280;18176;49.502;11.754;2023-04-01T22:31:29;95953.97;;;12.81;72.43
21185;BME280;18176;49.502;11.754;2023-04-01T22:35:45;95958.19;;;12.97;72.29
21185;BME280;18176;49.502;11.754;2023-04-01T22:40:13;95958.75;;;12.84;72.72
21185;BME280;18176;49.502;11.754;2023-04-01T22:44:35;95961.41;;;12.69;73.10
21185;BME280;18176;49.502;11.754;2023-04-01T22:48:46;95955.00;;;12.85;72.22
21185;BME280;18176;49.502;11.754;2023-04-01T22:53:01;95968.06;;;12.77;72.94
21185;BME280;18176;49.502;11.754;2023-04-01T22:57:14;95969.38;;;12.54;73.59
21185;BME280;18176;49.502;11.754;2023-04-01T23:01:25;95973.34;;;12.97;72.45
21185;BME280;18176;49.502;11.754;2023-04-01T23:05:30;95979.47;;;12.87;72.77
21185;BME280;18176;49.502;11.754;2023-04-01T23:09:36;95977.09;;;13.06;72.15
21185;BME280;18176;49.502;11.754;2023-04-01T23:13:45;95992.50;;;12.99;72.24
21185;BME280;18176;49.502;11.754;2023-04-01T23:18:04;95989.06;;;13.18;71.44
21185;BME280;18176;49.502;11.754;2023-04-01T23:22:22;95996.50;;;12.91;71.90
21185;BME280;18176;49.502;11.754;2023-04-01T23:26:34;95992.53;;;13.09;71.57
21185;BME280;18176;49.502;11.754;2023-04-01T23:30:52;96001.81;;;12.76;71.91
21185;BME280;18176;49.502;11.754;2023-04-01T23:34:55;96016.69;;;12.97;71.95
21185;BME280;18176;49.502;11.754;2023-04-01T23:39:05;96018.81;;;12.85;71.62
21185;BME280;18176;49.502;11.754;2023-04-01T23:43:14;96023.06;;;12.71;72.40
21185;BME280;18176;49.502;11.754;2023-04-01T23:47:22;96027.84;;;12.64;72.46
21185;BME280;18176;49.502;11.754;2023-04-01T23:51:27;96033.72;;;13.01;71.32
21185;BME280;18176;49.502;11.754;2023-04-01T23:55:32;96028.66;;;13.30;70.26
21185;BME280;18176;49.502;11.754;2023-04-01T23:59:36;96035.31;;;13.22;70.58
